sensor_id;sensor_type;location;lat;lon;timestamp;temperature;humidity
70107;DHT22;57473;37.508;15.080;2023-04-25T00:00:54;16.10;84.90
70107;DHT22;57473;37.508;15.080;2023-04-25T00:03:21;16.10;85.00
70107;DHT22;57473;37.508;15.080;2023-04-25T00:05:49;16.00;85.30
70107;DHT22;57473;37.508;15.080;2023-04-25T00:08:18;16.00;85.30
70107;DHT22;57473;37.508;15.080;2023-04-25T00:10:46;16.00;85.30
70107;DHT22;57473;37.508;15.080;2023-04-25T00:13:13;16.00;85.50
70107;DHT22;57473;37.508;15.080;2023-04-25T00:15:41;16.00;85.50
70107;DHT22;57473;37.508;15.080;2023-04-25T00:18:09;16.00;85.50
70107;DHT22;57473;37.508;15.080;2023-04-25T00:20:38;16.00;85.60
70107;DHT22;57473;37.508;15.080;2023-04-25T00:23:05;16.00;85.60
70107;DHT22;57473;37.508;15.080;2023-04-25T00:25:33;16.00;85.50
70107;DHT22;57473;37.508;15.080;2023-04-25T00:28:00;16.00;85.50
70107;DHT22;57473;37.508;15.080;2023-04-25T00:30:27;15.90;85.60
70107;DHT22;57473;37.508;15.080;2023-04-25T00:32:55;15.90;85.80
70107;DHT22;57473;37.508;15.080;2023-04-25T00:35:22;15.90;85.60
70107;DHT22;57473;37.508;15.080;2023-04-25T00:37:49;15.90;85.70
70107;DHT22;57473;37.508;15.080;2023-04-25T00:40:17;15.90;85.60
70107;DHT22;57473;37.508;15.080;2023-04-25T00:42:45;15.90;85.50
70107;DHT22;57473;37.508;15.080;2023-04-25T00:45:14;15.90;85.60
70107;DHT22;57473;37.508;15.080;2023-04-25T00:47:42;15.90;85.30
70107;DHT22;57473;37.508;15.080;2023-04-25T00:50:10;15.90;85.30
70107;DHT22;57473;37.508;15.080;2023-04-25T00:52:42;16.00;85.20
70107;DHT22;57473;37.508;15.080;2023-04-25T00:55:10;16.00;85.10
70107;DHT22;57473;37.508;15.080;2023-04-25T00:57:39;16.00;85.00
70107;DHT22;57473;37.508;15.080;2023-04-25T01:00:08;16.00;84.80
70107;DHT22;57473;37.508;15.080;2023-04-25T01:02:37;16.00;84.70
70107;DHT22;57473;37.508;15.080;2023-04-25T01:05:05;16.00;84.80
70107;DHT22;57473;37.508;15.080;2023-04-25T01:07:32;16.00;84.70
70107;DHT22;57473;37.508;15.080;2023-04-25T01:10:00;16.00;84.60
70107;DHT22;57473;37.508;15.080;2023-04-25T01:12:28;16.00;84.40
70107;DHT22;57473;37.508;15.080;2023-04-25T01:14:55;16.00;84.50
70107;DHT22;57473;37.508;15.080;2023-04-25T01:17:23;16.10;84.40
70107;DHT22;57473;37.508;15.080;2023-04-25T01:19:50;16.10;84.40
70107;DHT22;57473;37.508;15.080;2023-04-25T01:22:18;16.10;84.40
70107;DHT22;57473;37.508;15.080;2023-04-25T01:24:46;16.00;84.50
70107;DHT22;57473;37.508;15.080;2023-04-25T01:27:14;16.10;84.40
70107;DHT22;57473;37.508;15.080;2023-04-25T01:29:42;16.00;84.50
70107;DHT22;57473;37.508;15.080;2023-04-25T01:32:10;16.00;84.80
70107;DHT22;57473;37.508;15.080;2023-04-25T01:34:38;15.90;85.10
70107;DHT22;57473;37.508;15.080;2023-04-25T01:37:05;15.90;85.10
70107;DHT22;57473;37.508;15.080;2023-04-25T01:39:33;15.90;85.20
70107;DHT22;57473;37.508;15.080;2023-04-25T01:42:00;15.90;85.20
70107;DHT22;57473;37.508;15.080;2023-04-25T01:44:30;15.90;85.40
70107;DHT22;57473;37.508;15.080;2023-04-25T01:46:57;15.80;85.60
70107;DHT22;57473;37.508;15.080;2023-04-25T01:49:25;15.80;85.80
70107;DHT22;57473;37.508;15.080;2023-04-25T01:51:52;15.80;85.90
70107;DHT22;57473;37.508;15.080;2023-04-25T01:54:21;15.80;85.70
70107;DHT22;57473;37.508;15.080;2023-04-25T01:56:52;15.80;85.70
70107;DHT22;57473;37.508;15.080;2023-04-25T01:59:21;15.80;85.80
70107;DHT22;57473;37.508;15.080;2023-04-25T02:02:11;15.80;85.80
70107;DHT22;57473;37.508;15.080;2023-04-25T02:04:39;15.80;86.00
70107;DHT22;57473;37.508;15.080;2023-04-25T02:07:07;15.80;86.10
70107;DHT22;57473;37.508;15.080;2023-04-25T02:09:44;15.80;86.30
70107;DHT22;57473;37.508;15.080;2023-04-25T02:12:12;15.70;86.60
70107;DHT22;57473;37.508;15.080;2023-04-25T02:14:58;15.70;86.80
70107;DHT22;57473;37.508;15.080;2023-04-25T02:17:54;15.60;87.00
70107;DHT22;57473;37.508;15.080;2023-04-25T02:20:24;15.60;87.10
70107;DHT22;57473;37.508;15.080;2023-04-25T02:22:51;15.60;87.30
70107;DHT22;57473;37.508;15.080;2023-04-25T02:25:20;15.60;87.40
70107;DHT22;57473;37.508;15.080;2023-04-25T02:27:48;15.60;87.40
70107;DHT22;57473;37.508;15.080;2023-04-25T02:30:16;15.60;87.40
70107;DHT22;57473;37.508;15.080;2023-04-25T02:32:43;15.60;87.50
70107;DHT22;57473;37.508;15.080;2023-04-25T02:35:11;15.60;87.50
70107;DHT22;57473;37.508;15.080;2023-04-25T02:37:39;15.60;87.60
70107;DHT22;57473;37.508;15.080;2023-04-25T02:40:07;15.60;87.50
70107;DHT22;57473;37.508;15.080;2023-04-25T02:42:35;15.60;87.50
70107;DHT22;57473;37.508;15.080;2023-04-25T02:45:02;15.50;87.40
70107;DHT22;57473;37.508;15.080;2023-04-25T02:47:30;15.60;86.90
70107;DHT22;57473;37.508;15.080;2023-04-25T02:49:58;15.50;86.60
70107;DHT22;57473;37.508;15.080;2023-04-25T02:52:26;15.50;86.40
70107;DHT22;57473;37.508;15.080;2023-04-25T02:55:01;15.40;86.40
70107;DHT22;57473;37.508;15.080;2023-04-25T02:57:30;15.40;86.50
70107;DHT22;57473;37.508;15.080;2023-04-25T02:59:57;15.40;86.60
70107;DHT22;57473;37.508;15.080;2023-04-25T03:02:24;15.40;86.60
70107;DHT22;57473;37.508;15.080;2023-04-25T03:04:52;15.30;86.40
70107;DHT22;57473;37.508;15.080;2023-04-25T03:07:19;15.40;86.30
70107;DHT22;57473;37.508;15.080;2023-04-25T03:09:48;15.30;86.00
70107;DHT22;57473;37.508;15.080;2023-04-25T03:12:15;15.30;85.70
70107;DHT22;57473;37.508;15.080;2023-04-25T03:14:43;15.30;85.50
70107;DHT22;57473;37.508;15.080;2023-04-25T03:17:10;15.30;85.50
70107;DHT22;57473;37.508;15.080;2023-04-25T03:19:37;15.30;85.30
70107;DHT22;57473;37.508;15.080;2023-04-25T03:22:05;15.30;85.40
70107;DHT22;57473;37.508;15.080;2023-04-25T03:24:32;15.30;85.30
70107;DHT22;57473;37.508;15.080;2023-04-25T03:26:59;15.30;85.30
70107;DHT22;57473;37.508;15.080;2023-04-25T03:29:27;15.30;85.00
70107;DHT22;57473;37.508;15.080;2023-04-25T03:31:56;15.30;84.80
70107;DHT22;57473;37.508;15.080;2023-04-25T03:34:24;15.30;84.50
70107;DHT22;57473;37.508;15.080;2023-04-25T03:36:51;15.30;84.20
70107;DHT22;57473;37.508;15.080;2023-04-25T03:39:19;15.30;84.10
70107;DHT22;57473;37.508;15.080;2023-04-25T03:41:49;15.30;83.90
70107;DHT22;57473;37.508;15.080;2023-04-25T03:44:18;15.20;83.50
70107;DHT22;57473;37.508;15.080;2023-04-25T03:46:46;15.20;83.00
70107;DHT22;57473;37.508;15.080;2023-04-25T03:49:13;15.20;82.80
70107;DHT22;57473;37.508;15.080;2023-04-25T03:51:55;15.20;82.60
70107;DHT22;57473;37.508;15.080;2023-04-25T03:54:23;15.10;82.20
70107;DHT22;57473;37.508;15.080;2023-04-25T03:57:12;15.10;82.30
70107;DHT22;57473;37.508;15.080;2023-04-25T03:59:42;15.10;81.30
70107;DHT22;57473;37.508;15.080;2023-04-25T04:02:11;15.10;81.00
70107;DHT22;57473;37.508;15.080;2023-04-25T04:04:40;15.20;80.80
70107;DHT22;57473;37.508;15.080;2023-04-25T04:07:08;15.20;80.20
70107;DHT22;57473;37.508;15.080;2023-04-25T04:09:39;15.20;79.90
70107;DHT22;57473;37.508;15.080;2023-04-25T04:12:12;15.10;79.70
70107;DHT22;57473;37.508;15.080;2023-04-25T04:14:41;15.10;79.20
70107;DHT22;57473;37.508;15.080;2023-04-25T04:17:09;15.10;78.30
70107;DHT22;57473;37.508;15.080;2023-04-25T04:19:36;15.10;78.10
70107;DHT22;57473;37.508;15.080;2023-04-25T04:22:09;15.10;77.90
70107;DHT22;57473;37.508;15.080;2023-04-25T04:24:38;15.10;77.70
70107;DHT22;57473;37.508;15.080;2023-04-25T04:27:07;15.10;77.70
70107;DHT22;57473;37.508;15.080;2023-04-25T04:29:45;15.10;77.60
70107;DHT22;57473;37.508;15.080;2023-04-25T04:32:16;15.20;77.30
70107;DHT22;57473;37.508;15.080;2023-04-25T04:34:44;15.20;77.50
70107;DHT22;57473;37.508;15.080;2023-04-25T04:37:16;15.20;77.60
70107;DHT22;57473;37.508;15.080;2023-04-25T04:39:43;15.20;77.40
70107;DHT22;57473;37.508;15.080;2023-04-25T04:42:31;15.20;77.40
70107;DHT22;57473;37.508;15.080;2023-04-25T04:45:05;15.20;77.10
70107;DHT22;57473;37.508;15.080;2023-04-25T04:47:59;15.20;76.80
70107;DHT22;57473;37.508;15.080;2023-04-25T04:50:55;15.30;76.10
70107;DHT22;57473;37.508;15.080;2023-04-25T04:53:40;15.30;76.10
70107;DHT22;57473;37.508;15.080;2023-04-25T04:56:30;15.30;75.90
70107;DHT22;57473;37.508;15.080;2023-04-25T04:59:26;15.30;75.40
70107;DHT22;57473;37.508;15.080;2023-04-25T05:02:16;15.30;75.30
70107;DHT22;57473;37.508;15.080;2023-04-25T05:05:03;15.40;75.10
70107;DHT22;57473;37.508;15.080;2023-04-25T05:07:53;15.40;75.10
70107;DHT22;57473;37.508;15.080;2023-04-25T05:10:33;15.40;75.10
70107;DHT22;57473;37.508;15.080;2023-04-25T05:13:30;15.30;74.90
70107;DHT22;57473;37.508;15.080;2023-04-25T05:16:00;15.30;75.00
70107;DHT22;57473;37.508;15.080;2023-04-25T05:19:03;15.30;75.20
70107;DHT22;57473;37.508;15.080;2023-04-25T05:21:43;15.30;75.20
70107;DHT22;57473;37.508;15.080;2023-04-25T05:24:30;15.30;75.10
70107;DHT22;57473;37.508;15.080;2023-04-25T05:27:19;15.40;75.00
70107;DHT22;57473;37.508;15.080;2023-04-25T05:30:05;15.40;75.00
70107;DHT22;57473;37.508;15.080;2023-04-25T05:32:49;15.40;74.70
70107;DHT22;57473;37.508;15.080;2023-04-25T05:35:17;15.50;74.60
70107;DHT22;57473;37.508;15.080;2023-04-25T05:37:47;15.60;74.40
70107;DHT22;57473;37.508;15.080;2023-04-25T05:40:16;15.60;74.10
70107;DHT22;57473;37.508;15.080;2023-04-25T05:42:44;15.80;73.60
70107;DHT22;57473;37.508;15.080;2023-04-25T05:45:32;15.90;73.30
70107;DHT22;57473;37.508;15.080;2023-04-25T05:48:18;16.10;72.00
70107;DHT22;57473;37.508;15.080;2023-04-25T05:51:09;16.20;71.80
70107;DHT22;57473;37.508;15.080;2023-04-25T05:53:55;16.30;71.20
70107;DHT22;57473;37.508;15.080;2023-04-25T05:56:22;16.50;70.50
70107;DHT22;57473;37.508;15.080;2023-04-25T05:58:51;16.70;69.20
70107;DHT22;57473;37.508;15.080;2023-04-25T06:01:19;16.90;68.40
70107;DHT22;57473;37.508;15.080;2023-04-25T06:03:47;17.10;67.50
70107;DHT22;57473;37.508;15.080;2023-04-25T06:06:17;17.20;66.90
70107;DHT22;57473;37.508;15.080;2023-04-25T06:08:46;17.40;65.80
70107;DHT22;57473;37.508;15.080;2023-04-25T06:11:13;17.50;65.60
70107;DHT22;57473;37.508;15.080;2023-04-25T06:13:41;17.60;65.50
70107;DHT22;57473;37.508;15.080;2023-04-25T06:16:08;17.70;64.60
70107;DHT22;57473;37.508;15.080;2023-04-25T06:18:36;17.90;64.20
70107;DHT22;57473;37.508;15.080;2023-04-25T06:21:03;18.10;63.40
70107;DHT22;57473;37.508;15.080;2023-04-25T06:23:32;18.30;62.30
70107;DHT22;57473;37.508;15.080;2023-04-25T06:26:03;18.50;62.00
70107;DHT22;57473;37.508;15.080;2023-04-25T06:28:32;18.50;61.30
70107;DHT22;57473;37.508;15.080;2023-04-25T06:31:00;18.70;60.80
70107;DHT22;57473;37.508;15.080;2023-04-25T06:33:29;18.80;60.50
70107;DHT22;57473;37.508;15.080;2023-04-25T06:35:56;18.90;59.80
70107;DHT22;57473;37.508;15.080;2023-04-25T06:38:26;19.00;59.70
70107;DHT22;57473;37.508;15.080;2023-04-25T06:40:56;19.10;59.30
70107;DHT22;57473;37.508;15.080;2023-04-25T06:43:25;19.10;59.20
70107;DHT22;57473;37.508;15.080;2023-04-25T06:46:11;19.20;59.00
70107;DHT22;57473;37.508;15.080;2023-04-25T06:48:43;19.10;59.20
70107;DHT22;57473;37.508;15.080;2023-04-25T06:51:11;19.10;59.60
70107;DHT22;57473;37.508;15.080;2023-04-25T06:53:40;19.20;59.60
70107;DHT22;57473;37.508;15.080;2023-04-25T06:56:16;19.30;59.20
70107;DHT22;57473;37.508;15.080;2023-04-25T06:58:51;19.40;58.30
70107;DHT22;57473;37.508;15.080;2023-04-25T07:01:38;19.50;57.90
70107;DHT22;57473;37.508;15.080;2023-04-25T07:04:13;19.60;58.00
70107;DHT22;57473;37.508;15.080;2023-04-25T07:06:47;19.60;58.30
70107;DHT22;57473;37.508;15.080;2023-04-25T07:09:18;19.70;58.10
70107;DHT22;57473;37.508;15.080;2023-04-25T07:11:48;19.80;57.80
70107;DHT22;57473;37.508;15.080;2023-04-25T07:14:16;19.70;58.00
70107;DHT22;57473;37.508;15.080;2023-04-25T07:16:44;19.60;58.90
70107;DHT22;57473;37.508;15.080;2023-04-25T07:19:12;19.60;59.20
70107;DHT22;57473;37.508;15.080;2023-04-25T07:21:40;19.70;59.30
70107;DHT22;57473;37.508;15.080;2023-04-25T07:24:07;19.90;59.10
70107;DHT22;57473;37.508;15.080;2023-04-25T07:26:39;19.80;59.40
70107;DHT22;57473;37.508;15.080;2023-04-25T07:29:27;19.90;59.20
70107;DHT22;57473;37.508;15.080;2023-04-25T07:31:58;20.00;58.00
70107;DHT22;57473;37.508;15.080;2023-04-25T07:34:25;20.10;57.80
70107;DHT22;57473;37.508;15.080;2023-04-25T07:36:53;20.10;57.80
70107;DHT22;57473;37.508;15.080;2023-04-25T07:39:22;20.30;57.50
70107;DHT22;57473;37.508;15.080;2023-04-25T07:41:50;20.40;56.80
70107;DHT22;57473;37.508;15.080;2023-04-25T07:44:24;20.60;56.10
70107;DHT22;57473;37.508;15.080;2023-04-25T07:46:53;20.80;55.00
70107;DHT22;57473;37.508;15.080;2023-04-25T07:49:20;21.00;54.70
70107;DHT22;57473;37.508;15.080;2023-04-25T07:51:49;21.20;53.70
70107;DHT22;57473;37.508;15.080;2023-04-25T07:54:18;21.30;53.80
70107;DHT22;57473;37.508;15.080;2023-04-25T07:56:51;21.30;53.80
70107;DHT22;57473;37.508;15.080;2023-04-25T07:59:25;21.40;53.20
70107;DHT22;57473;37.508;15.080;2023-04-25T08:01:56;21.60;53.20
70107;DHT22;57473;37.508;15.080;2023-04-25T08:04:25;21.70;53.40
70107;DHT22;57473;37.508;15.080;2023-04-25T08:06:58;21.90;53.00
70107;DHT22;57473;37.508;15.080;2023-04-25T08:09:29;21.90;53.10
70107;DHT22;57473;37.508;15.080;2023-04-25T08:12:03;22.10;52.40
70107;DHT22;57473;37.508;15.080;2023-04-25T08:14:32;22.30;52.30
70107;DHT22;57473;37.508;15.080;2023-04-25T08:17:04;22.60;52.00
70107;DHT22;57473;37.508;15.080;2023-04-25T08:19:34;22.70;51.30
70107;DHT22;57473;37.508;15.080;2023-04-25T08:22:02;22.90;50.70
70107;DHT22;57473;37.508;15.080;2023-04-25T08:24:41;23.00;48.90
70107;DHT22;57473;37.508;15.080;2023-04-25T08:27:12;23.00;49.10
70107;DHT22;57473;37.508;15.080;2023-04-25T08:29:41;23.30;48.90
70107;DHT22;57473;37.508;15.080;2023-04-25T08:32:10;23.40;48.20
70107;DHT22;57473;37.508;15.080;2023-04-25T08:34:46;23.70;46.10
70107;DHT22;57473;37.508;15.080;2023-04-25T08:37:14;23.80;45.50
70107;DHT22;57473;37.508;15.080;2023-04-25T08:39:52;24.00;44.80
70107;DHT22;57473;37.508;15.080;2023-04-25T08:42:24;24.40;45.20
70107;DHT22;57473;37.508;15.080;2023-04-25T08:44:53;24.20;49.10
70107;DHT22;57473;37.508;15.080;2023-04-25T08:47:24;23.80;50.00
70107;DHT22;57473;37.508;15.080;2023-04-25T08:49:56;23.40;49.30
70107;DHT22;57473;37.508;15.080;2023-04-25T08:52:24;23.30;49.10
70107;DHT22;57473;37.508;15.080;2023-04-25T08:54:55;23.00;49.00
70107;DHT22;57473;37.508;15.080;2023-04-25T08:57:26;23.00;48.10
70107;DHT22;57473;37.508;15.080;2023-04-25T08:59:57;22.60;48.90
70107;DHT22;57473;37.508;15.080;2023-04-25T09:02:25;22.50;49.60
70107;DHT22;57473;37.508;15.080;2023-04-25T09:04:54;22.70;49.70
70107;DHT22;57473;37.508;15.080;2023-04-25T09:07:22;22.70;48.70
70107;DHT22;57473;37.508;15.080;2023-04-25T09:09:50;22.60;48.80
70107;DHT22;57473;37.508;15.080;2023-04-25T09:12:20;22.60;48.40
70107;DHT22;57473;37.508;15.080;2023-04-25T09:15:10;22.70;47.80
70107;DHT22;57473;37.508;15.080;2023-04-25T09:18:13;22.50;47.80
70107;DHT22;57473;37.508;15.080;2023-04-25T09:20:43;22.70;46.80
70107;DHT22;57473;37.508;15.080;2023-04-25T09:23:14;22.70;47.10
70107;DHT22;57473;37.508;15.080;2023-04-25T09:25:42;22.80;47.20
70107;DHT22;57473;37.508;15.080;2023-04-25T09:28:11;22.80;47.00
70107;DHT22;57473;37.508;15.080;2023-04-25T09:30:39;22.50;47.50
70107;DHT22;57473;37.508;15.080;2023-04-25T09:33:17;22.50;47.50
70107;DHT22;57473;37.508;15.080;2023-04-25T09:35:48;22.60;47.60
70107;DHT22;57473;37.508;15.080;2023-04-25T09:38:45;22.60;48.00
70107;DHT22;57473;37.508;15.080;2023-04-25T09:41:24;22.70;47.90
70107;DHT22;57473;37.508;15.080;2023-04-25T09:43:57;22.60;48.40
70107;DHT22;57473;37.508;15.080;2023-04-25T09:46:34;22.80;48.30
70107;DHT22;57473;37.508;15.080;2023-04-25T09:49:08;22.80;48.10
70107;DHT22;57473;37.508;15.080;2023-04-25T09:51:54;22.70;48.40
70107;DHT22;57473;37.508;15.080;2023-04-25T09:54:23;22.60;48.60
70107;DHT22;57473;37.508;15.080;2023-04-25T09:57:03;22.40;48.80
70107;DHT22;57473;37.508;15.080;2023-04-25T09:59:38;22.30;49.00
70107;DHT22;57473;37.508;15.080;2023-04-25T10:02:07;22.50;48.50
70107;DHT22;57473;37.508;15.080;2023-04-25T10:04:38;22.70;48.10
70107;DHT22;57473;37.508;15.080;2023-04-25T10:07:14;22.50;48.80
70107;DHT22;57473;37.508;15.080;2023-04-25T10:09:45;22.60;49.10
70107;DHT22;57473;37.508;15.080;2023-04-25T10:12:14;22.70;49.00
70107;DHT22;57473;37.508;15.080;2023-04-25T10:14:42;22.50;48.90
70107;DHT22;57473;37.508;15.080;2023-04-25T10:17:10;22.40;49.20
70107;DHT22;57473;37.508;15.080;2023-04-25T10:19:41;22.40;49.40
70107;DHT22;57473;37.508;15.080;2023-04-25T10:22:17;22.40;49.80
70107;DHT22;57473;37.508;15.080;2023-04-25T10:24:46;22.50;50.30
70107;DHT22;57473;37.508;15.080;2023-04-25T10:27:14;22.60;49.60
70107;DHT22;57473;37.508;15.080;2023-04-25T10:29:41;22.50;50.50
70107;DHT22;57473;37.508;15.080;2023-04-25T10:32:10;22.50;50.50
70107;DHT22;57473;37.508;15.080;2023-04-25T10:34:43;22.00;51.50
70107;DHT22;57473;37.508;15.080;2023-04-25T10:37:11;22.20;51.50
70107;DHT22;57473;37.508;15.080;2023-04-25T10:39:43;22.60;50.50
70107;DHT22;57473;37.508;15.080;2023-04-25T10:42:11;22.90;49.70
70107;DHT22;57473;37.508;15.080;2023-04-25T10:44:38;23.00;49.70
70107;DHT22;57473;37.508;15.080;2023-04-25T10:47:07;22.90;50.00
70107;DHT22;57473;37.508;15.080;2023-04-25T10:49:45;23.00;50.40
70107;DHT22;57473;37.508;15.080;2023-04-25T10:54:55;23.00;50.10
70107;DHT22;57473;37.508;15.080;2023-04-25T11:00:13;23.40;49.60
70107;DHT22;57473;37.508;15.080;2023-04-25T11:05:30;23.70;49.30
70107;DHT22;57473;37.508;15.080;2023-04-25T11:08:00;23.70;49.00
70107;DHT22;57473;37.508;15.080;2023-04-25T11:10:34;23.30;49.70
70107;DHT22;57473;37.508;15.080;2023-04-25T11:13:04;23.30;49.80
70107;DHT22;57473;37.508;15.080;2023-04-25T11:15:32;23.40;50.20
70107;DHT22;57473;37.508;15.080;2023-04-25T11:17:59;23.40;50.60
70107;DHT22;57473;37.508;15.080;2023-04-25T11:20:28;23.30;50.80
70107;DHT22;57473;37.508;15.080;2023-04-25T11:22:58;23.60;50.60
70107;DHT22;57473;37.508;15.080;2023-04-25T11:25:28;23.80;50.30
70107;DHT22;57473;37.508;15.080;2023-04-25T11:27:59;24.10;49.80
70107;DHT22;57473;37.508;15.080;2023-04-25T11:30:28;24.30;49.80
70107;DHT22;57473;37.508;15.080;2023-04-25T11:32:57;24.10;49.70
70107;DHT22;57473;37.508;15.080;2023-04-25T11:35:25;23.20;52.20
70107;DHT22;57473;37.508;15.080;2023-04-25T11:37:52;23.30;51.70
70107;DHT22;57473;37.508;15.080;2023-04-25T11:40:20;22.80;52.80
70107;DHT22;57473;37.508;15.080;2023-04-25T11:42:47;23.20;52.20
70107;DHT22;57473;37.508;15.080;2023-04-25T11:45:15;23.20;52.30
70107;DHT22;57473;37.508;15.080;2023-04-25T11:47:42;23.70;51.40
70107;DHT22;57473;37.508;15.080;2023-04-25T11:50:10;24.10;50.60
70107;DHT22;57473;37.508;15.080;2023-04-25T11:52:39;24.10;50.70
70107;DHT22;57473;37.508;15.080;2023-04-25T11:55:13;24.30;50.30
70107;DHT22;57473;37.508;15.080;2023-04-25T11:57:42;23.90;50.80
70107;DHT22;57473;37.508;15.080;2023-04-25T12:00:11;23.60;51.40
70107;DHT22;57473;37.508;15.080;2023-04-25T12:02:45;23.40;51.70
70107;DHT22;57473;37.508;15.080;2023-04-25T12:05:14;23.40;52.00
70107;DHT22;57473;37.508;15.080;2023-04-25T12:07:58;23.30;52.70
70107;DHT22;57473;37.508;15.080;2023-04-25T12:10:38;23.90;51.50
70107;DHT22;57473;37.508;15.080;2023-04-25T12:13:26;24.20;50.70
70107;DHT22;57473;37.508;15.080;2023-04-25T12:15:55;24.10;50.70
70107;DHT22;57473;37.508;15.080;2023-04-25T12:18:24;24.10;50.70
70107;DHT22;57473;37.508;15.080;2023-04-25T12:20:54;24.10;50.40
70107;DHT22;57473;37.508;15.080;2023-04-25T12:23:26;24.30;50.10
70107;DHT22;57473;37.508;15.080;2023-04-25T12:25:54;24.30;49.90
70107;DHT22;57473;37.508;15.080;2023-04-25T12:28:24;24.00;50.90
70107;DHT22;57473;37.508;15.080;2023-04-25T12:30:55;24.10;50.60
70107;DHT22;57473;37.508;15.080;2023-04-25T12:33:24;24.20;50.40
70107;DHT22;57473;37.508;15.080;2023-04-25T12:35:56;24.00;50.70
70107;DHT22;57473;37.508;15.080;2023-04-25T12:38:29;24.10;50.80
70107;DHT22;57473;37.508;15.080;2023-04-25T12:41:06;24.40;50.10
70107;DHT22;57473;37.508;15.080;2023-04-25T12:43:34;23.90;51.40
70107;DHT22;57473;37.508;15.080;2023-04-25T12:46:01;24.10;51.30
70107;DHT22;57473;37.508;15.080;2023-04-25T12:48:31;23.90;52.00
70107;DHT22;57473;37.508;15.080;2023-04-25T12:50:58;24.30;51.00
70107;DHT22;57473;37.508;15.080;2023-04-25T12:53:26;25.10;48.90
70107;DHT22;57473;37.508;15.080;2023-04-25T12:55:54;25.10;48.80
70107;DHT22;57473;37.508;15.080;2023-04-25T12:58:26;24.90;49.40
70107;DHT22;57473;37.508;15.080;2023-04-25T13:00:53;24.90;49.40
70107;DHT22;57473;37.508;15.080;2023-04-25T13:03:21;24.90;49.20
70107;DHT22;57473;37.508;15.080;2023-04-25T13:05:49;24.60;49.40
70107;DHT22;57473;37.508;15.080;2023-04-25T13:08:19;24.70;50.00
70107;DHT22;57473;37.508;15.080;2023-04-25T13:10:50;25.20;49.00
70107;DHT22;57473;37.508;15.080;2023-04-25T13:13:20;24.80;49.90
70107;DHT22;57473;37.508;15.080;2023-04-25T13:15:47;24.50;50.80
70107;DHT22;57473;37.508;15.080;2023-04-25T13:18:15;25.20;49.20
70107;DHT22;57473;37.508;15.080;2023-04-25T13:20:42;25.00;49.70
70107;DHT22;57473;37.508;15.080;2023-04-25T13:23:09;25.20;49.10
70107;DHT22;57473;37.508;15.080;2023-04-25T13:25:37;25.50;48.70
70107;DHT22;57473;37.508;15.080;2023-04-25T13:28:04;25.70;48.60
70107;DHT22;57473;37.508;15.080;2023-04-25T13:30:32;25.80;48.40
70107;DHT22;57473;37.508;15.080;2023-04-25T13:32:59;25.90;47.90
70107;DHT22;57473;37.508;15.080;2023-04-25T13:35:30;25.70;48.40
70107;DHT22;57473;37.508;15.080;2023-04-25T13:37:58;26.10;47.70
70107;DHT22;57473;37.508;15.080;2023-04-25T13:40:25;26.50;46.80
70107;DHT22;57473;37.508;15.080;2023-04-25T13:42:54;26.60;46.30
70107;DHT22;57473;37.508;15.080;2023-04-25T13:45:22;26.50;46.60
70107;DHT22;57473;37.508;15.080;2023-04-25T13:47:49;26.00;47.50
70107;DHT22;57473;37.508;15.080;2023-04-25T13:50:17;25.60;48.20
70107;DHT22;57473;37.508;15.080;2023-04-25T13:52:44;25.80;48.40
70107;DHT22;57473;37.508;15.080;2023-04-25T13:55:12;25.60;49.10
70107;DHT22;57473;37.508;15.080;2023-04-25T13:57:39;25.90;48.80
70107;DHT22;57473;37.508;15.080;2023-04-25T14:00:08;25.40;50.30
70107;DHT22;57473;37.508;15.080;2023-04-25T14:02:38;24.80;51.80
70107;DHT22;57473;37.508;15.080;2023-04-25T14:05:06;24.90;51.90
70107;DHT22;57473;37.508;15.080;2023-04-25T14:07:34;24.50;52.40
70107;DHT22;57473;37.508;15.080;2023-04-25T14:10:02;23.60;54.70
70107;DHT22;57473;37.508;15.080;2023-04-25T14:12:32;24.20;52.60
70107;DHT22;57473;37.508;15.080;2023-04-25T14:15:00;24.00;52.10
70107;DHT22;57473;37.508;15.080;2023-04-25T14:17:27;23.20;54.40
70107;DHT22;57473;37.508;15.080;2023-04-25T14:19:54;22.80;56.60
70107;DHT22;57473;37.508;15.080;2023-04-25T14:22:22;22.50;58.00
70107;DHT22;57473;37.508;15.080;2023-04-25T14:24:49;22.70;56.40
70107;DHT22;57473;37.508;15.080;2023-04-25T14:27:17;22.40;57.80
70107;DHT22;57473;37.508;15.080;2023-04-25T14:29:44;22.10;58.40
70107;DHT22;57473;37.508;15.080;2023-04-25T14:32:11;22.10;59.80
70107;DHT22;57473;37.508;15.080;2023-04-25T14:34:39;22.20;60.00
70107;DHT22;57473;37.508;15.080;2023-04-25T14:37:07;22.30;59.70
70107;DHT22;57473;37.508;15.080;2023-04-25T14:39:34;22.10;59.90
70107;DHT22;57473;37.508;15.080;2023-04-25T14:42:01;22.00;60.10
70107;DHT22;57473;37.508;15.080;2023-04-25T14:44:29;21.60;62.00
70107;DHT22;57473;37.508;15.080;2023-04-25T14:46:56;21.60;62.70
70107;DHT22;57473;37.508;15.080;2023-04-25T14:49:24;21.70;62.50
70107;DHT22;57473;37.508;15.080;2023-04-25T14:51:51;21.40;63.30
70107;DHT22;57473;37.508;15.080;2023-04-25T14:54:19;21.30;64.30
70107;DHT22;57473;37.508;15.080;2023-04-25T14:56:46;21.60;63.10
70107;DHT22;57473;37.508;15.080;2023-04-25T14:59:14;21.60;61.90
70107;DHT22;57473;37.508;15.080;2023-04-25T15:01:41;21.70;61.90
70107;DHT22;57473;37.508;15.080;2023-04-25T15:04:09;21.50;63.50
70107;DHT22;57473;37.508;15.080;2023-04-25T15:06:37;21.70;63.30
70107;DHT22;57473;37.508;15.080;2023-04-25T15:09:05;21.50;63.30
70107;DHT22;57473;37.508;15.080;2023-04-25T15:11:32;21.30;63.90
70107;DHT22;57473;37.508;15.080;2023-04-25T15:13:59;21.20;64.20
70107;DHT22;57473;37.508;15.080;2023-04-25T15:16:27;21.10;64.10
70107;DHT22;57473;37.508;15.080;2023-04-25T15:18:54;20.70;64.40
70107;DHT22;57473;37.508;15.080;2023-04-25T15:21:21;20.60;65.40
70107;DHT22;57473;37.508;15.080;2023-04-25T15:23:49;20.50;66.80
70107;DHT22;57473;37.508;15.080;2023-04-25T15:26:17;20.60;65.90
70107;DHT22;57473;37.508;15.080;2023-04-25T15:28:44;20.80;65.00
70107;DHT22;57473;37.508;15.080;2023-04-25T15:31:11;20.70;65.00
70107;DHT22;57473;37.508;15.080;2023-04-25T15:33:39;20.60;65.60
70107;DHT22;57473;37.508;15.080;2023-04-25T15:36:06;20.50;66.90
70107;DHT22;57473;37.508;15.080;2023-04-25T15:38:34;20.40;67.90
70107;DHT22;57473;37.508;15.080;2023-04-25T15:41:01;20.20;69.70
70107;DHT22;57473;37.508;15.080;2023-04-25T15:43:31;20.20;69.20
70107;DHT22;57473;37.508;15.080;2023-04-25T15:45:58;20.10;69.60